Time;durP1;ratioP1;P1;durP2;ratioP2;P2;SDS_P1;SDS_P2;PMS_P1;PMS_P2;Temp;Humidity;BMP_temperature;BMP_pressure;BME280_temperature;BME280_humidity;BME280_pressure;Samples;Min_cycle;Max_cycle;Signal;HPM_P1;HPM_P2
2022/06/28 00:02:03;;;;;;;15.75;14.15;;;;;;;18.53;100.00;100473.91;1749092;82;21505;-69
2022/06/28 00:04:30;;;;;;;18.48;14.63;;;;;;;18.49;100.00;100478.56;1749213;81;21852;-70
2022/06/28 00:06:57;;;;;;;18.15;13.68;;;;;;;18.45;100.00;100475.27;1749006;81;21032;-70
2022/06/28 00:09:24;;;;;;;20.02;14.85;;;;;;;18.42;100.00;100483.92;1749141;81;21584;-69
2022/06/28 00:11:51;;;;;;;17.07;13.85;;;;;;;18.39;100.00;100480.13;1749011;82;21023;-69
2022/06/28 00:17:03;;;;;;;19.07;14.20;;;;;;;18.34;100.00;100480.91;1749446;82;21229;-70
2022/06/28 00:19:30;;;;;;;18.23;14.40;;;;;;;18.33;100.00;100484.52;1749105;82;20976;-70
2022/06/28 00:21:57;;;;;;;25.27;14.20;;;;;;;18.29;100.00;100483.86;1748928;81;21043;-69
2022/06/28 00:24:27;;;;;;;16.32;13.65;;;;;;;18.28;100.00;100477.29;1748669;79;21036;31
2022/06/28 00:26:54;;;;;;;17.05;12.65;;;;;;;18.27;100.00;100479.11;1744462;82;21572;-70
2022/06/28 00:29:20;;;;;;;16.23;14.58;;;;;;;18.21;100.00;100463.01;1741406;82;21504;-71
2022/06/28 00:31:47;;;;;;;18.65;15.10;;;;;;;18.27;100.00;100468.44;1741842;82;21021;-70
2022/06/28 00:34:13;;;;;;;18.62;15.48;;;;;;;18.24;100.00;100468.16;1740187;82;21069;-71
2022/06/28 00:36:40;;;;;;;17.25;14.68;;;;;;;18.23;100.00;100465.10;1737877;82;21554;-71
2022/06/28 00:39:07;;;;;;;14.85;12.93;;;;;;;18.21;100.00;100469.67;1737724;82;21053;-70
2022/06/28 00:41:34;;;;;;;16.37;14.40;;;;;;;18.18;100.00;100467.21;1707970;79;21092;-70
2022/06/28 00:44:02;;;;;;;16.07;12.50;;;;;;;18.18;100.00;100469.88;1703476;84;21141;-71
2022/06/28 00:46:33;;;;;;;19.15;14.45;;;;;;;18.18;100.00;100469.88;1703568;84;21058;-70
2022/06/28 00:49:02;;;;;;;16.17;14.30;;;;;;;18.18;100.00;100470.36;1645787;87;21061;-69
2022/06/28 00:51:29;;;;;;;19.50;13.95;;;;;;;18.15;100.00;100467.41;1675442;85;21137;-71
2022/06/28 00:53:56;;;;;;;22.27;14.53;;;;;;;18.10;100.00;100468.16;1644591;87;21563;-70
2022/06/28 00:56:23;;;;;;;18.05;14.15;;;;;;;18.06;100.00;100469.33;1728460;80;21008;-70
2022/06/28 00:58:52;;;;;;;16.55;13.98;;;;;;;18.02;100.00;100465.13;1746238;82;20988;-70
2022/06/28 01:01:20;;;;;;;17.50;14.43;;;;;;;17.99;100.00;100462.64;1746480;82;21012;-71
2022/06/28 01:03:47;;;;;;;21.87;15.72;;;;;;;17.96;100.00;100462.36;1687808;84;21657;-70
2022/06/28 01:06:15;;;;;;;17.20;14.60;;;;;;;17.94;100.00;100463.41;1708027;84;21117;-71
2022/06/28 01:08:45;;;;;;;18.70;15.50;;;;;;;17.93;100.00;100456.39;1707996;83;21109;-71
2022/06/28 01:11:20;;;;;;;16.07;12.78;;;;;;;17.90;100.00;100465.88;1693619;80;21027;-69
2022/06/28 01:13:54;;;;;;;20.08;14.33;;;;;;;17.86;100.00;100463.91;1730864;82;21039;-70
2022/06/28 01:16:22;;;;;;;19.85;14.40;;;;;;;17.88;100.00;100463.81;1731111;82;21061;-69
2022/06/28 01:18:51;;;;;;;18.52;13.95;;;;;;;17.87;100.00;100462.09;1730998;82;22151;-69
2022/06/28 01:21:19;;;;;;;20.68;15.10;;;;;;;17.92;100.00;100457.31;1728968;82;21037;-70
2022/06/28 01:23:47;;;;;;;17.45;14.35;;;;;;;17.91;100.00;100456.47;1731114;82;21090;-69
2022/06/28 01:26:19;;;;;;;17.30;15.60;;;;;;;17.89;100.00;100457.52;1721098;80;21107;-70
2022/06/28 01:28:48;;;;;;;17.95;15.40;;;;;;;17.87;100.00;100459.42;1722287;83;21128;-71
2022/06/28 01:31:21;;;;;;;16.17;13.58;;;;;;;17.85;100.00;100465.31;1721719;83;21040;-71
2022/06/28 01:33:52;;;;;;;18.25;14.95;;;;;;;17.84;100.00;100460.95;1719579;82;21111;-70
2022/06/28 01:36:19;;;;;;;22.48;15.63;;;;;;;17.81;100.00;100456.19;1716302;83;21068;-70
2022/06/28 01:38:47;;;;;;;17.02;15.15;;;;;;;17.82;100.00;100458.38;1716720;83;21615;-69
2022/06/28 01:41:34;;;;;;;18.95;15.88;;;;;;;17.82;100.00;100459.22;1719345;79;21064;-71
2022/06/28 01:43:42;;;;;;;17.82;14.85;;;;;;;17.81;100.00;100458.01;1732385;82;21116;-71
2022/06/28 01:46:09;;;;;;;19.25;16.42;;;;;;;17.82;100.00;100452.56;1746920;80;22057;-70
2022/06/28 01:48:37;;;;;;;22.07;15.35;;;;;;;17.85;100.00;100459.98;1746714;82;21019;-71
2022/06/28 01:51:05;;;;;;;17.65;15.75;;;;;;;17.77;100.00;100457.30;1746872;82;21028;-70
2022/06/28 01:53:31;;;;;;;20.32;16.05;;;;;;;17.86;100.00;100460.39;1745146;82;21074;-70
2022/06/28 01:56:04;;;;;;;16.15;13.98;;;;;;;17.88;100.00;100458.48;1730723;80;21263;-70
2022/06/28 01:58:41;;;;;;;18.40;15.20;;;;;;;17.86;100.00;100456.39;1683369;81;21070;-70
2022/06/28 02:01:08;;;;;;;21.20;16.45;;;;;;;18.05;100.00;100460.09;1724200;83;21058;-70
2022/06/28 02:03:36;;;;;;;19.82;16.48;;;;;;;18.05;100.00;100458.27;1734332;82;21028;-71
2022/06/28 02:06:14;;;;;;;20.08;16.30;;;;;;;18.07;100.00;100461.70;1732941;82;21046;-71
2022/06/28 02:08:41;;;;;;;19.73;16.50;;;;;;;18.15;100.00;100458.53;1734841;82;21165;-70
2022/06/28 02:11:10;;;;;;;21.17;16.17;;;;;;;18.12;100.00;100455.59;1748800;78;21003;-72
2022/06/28 02:13:42;;;;;;;21.20;17.25;;;;;;;18.07;100.00;100461.70;1753938;81;21031;-71
2022/06/28 02:16:08;;;;;;;16.48;14.68;;;;;;;18.05;100.00;100460.94;1760181;81;21023;-71
2022/06/28 02:18:36;;;;;;;18.75;16.75;;;;;;;18.02;100.00;100463.80;1760241;81;21094;-71
2022/06/28 02:21:06;;;;;;;24.50;17.12;;;;;;;18.11;100.00;100459.22;1760609;81;21090;-71
2022/06/28 02:23:32;;;;;;;19.05;16.65;;;;;;;18.00;100.00;100457.70;1760129;81;20988;-71
2022/06/28 02:25:59;;;;;;;19.85;16.95;;;;;;;17.89;100.00;100457.04;1727925;79;21060;-71
2022/06/28 02:28:27;;;;;;;18.65;16.55;;;;;;;17.89;100.00;100453.52;1687093;85;21624;-70
2022/06/28 02:30:56;;;;;;;17.80;14.20;;;;;;;17.94;100.00;100451.42;1687221;85;21569;-71
2022/06/28 02:33:22;;;;;;;21.05;17.15;;;;;;;17.96;100.00;100453.52;1686892;83;21091;-71
2022/06/28 02:41:21;;;;;;;17.98;16.17;;;;;;;18.11;100.00;100459.22;1680725;81;21010;-71
2022/06/28 02:43:48;;;;;;;21.93;14.58;;;;;;;18.23;100.00;100454.44;1677151;85;21051;-71
2022/06/28 02:46:15;;;;;;;17.85;16.05;;;;;;;18.24;100.00;100455.28;1677042;84;21097;-70
2022/06/28 02:48:41;;;;;;;16.93;15.00;;;;;;;18.33;100.00;100460.52;1677005;85;20995;-71
2022/06/28 02:51:08;;;;;;;16.35;13.15;;;;;;;18.40;100.00;100458.70;1677182;85;21043;-71
2022/06/28 02:53:35;;;;;;;17.60;15.55;;;;;;;18.52;100.00;100454.39;1674916;85;20972;-70
2022/06/28 02:56:02;;;;;;;16.93;13.25;;;;;;;18.60;100.00;100453.87;1662532;80;21404;-69
2022/06/28 02:58:29;;;;;;;16.85;14.63;;;;;;;18.73;100.00;100452.61;1645692;86;21268;-70
2022/06/28 03:00:56;;;;;;;18.07;16.17;;;;;;;18.82;100.00;100453.37;1652659;86;21028;-69
2022/06/28 03:03:23;;;;;;;16.32;14.28;;;;;;;18.93;100.00;100450.81;1686068;84;20991;-70
2022/06/28 03:05:50;;;;;;;19.45;16.23;;;;;;;19.09;100.00;100450.64;1683903;85;21006;-70
2022/06/28 03:08:17;;;;;;;18.37;14.83;;;;;;;19.21;100.00;100444.95;1683760;85;21030;-70
2022/06/28 03:10:45;;;;;;;16.93;14.20;;;;;;;19.29;100.00;100440.80;1677198;80;21013;-69
2022/06/28 03:13:12;;;;;;;18.40;15.50;;;;;;;19.41;100.00;100442.25;1626424;88;21056;-70
2022/06/28 03:15:39;;;;;;;16.10;13.65;;;;;;;19.52;100.00;100444.20;1656680;86;21005;-69
2022/06/28 03:18:06;;;;;;;16.40;14.70;;;;;;;19.65;100.00;100441.90;1626593;88;21515;-69
2022/06/28 03:20:34;;;;;;;19.20;15.50;;;;;;;19.83;100.00;100441.58;1656627;86;21053;-70
2022/06/28 03:23:00;;;;;;;17.42;13.70;;;;;;;19.98;100.00;100443.66;1656890;86;21096;-70
2022/06/28 03:25:27;;;;;;;16.37;13.98;;;;;;;20.14;100.00;100444.27;1635016;80;21405;-71
2022/06/28 03:27:54;;;;;;;15.75;13.20;;;;;;;20.31;100.00;100442.58;1750768;82;20965;-70
2022/06/28 03:30:21;;;;;;;21.85;13.60;;;;;;;20.48;100.00;100445.34;1747184;82;21497;-71
2022/06/28 03:32:49;;;;;;;15.63;14.07;;;;;;;20.67;100.00;100447.54;1745643;80;20968;-71
2022/06/28 03:35:18;;;;;;;19.23;13.90;;;;;;;20.85;100.00;100439.97;1744922;82;21340;-71
2022/06/28 03:37:44;;;;;;;16.67;14.20;;;;;;;21.05;100.00;100446.50;1724793;82;21059;-70
2022/06/28 03:40:33;;;;;;;14.35;12.65;;;;;;;21.26;100.00;100449.86;1745256;82;21571;-72
2022/06/28 03:42:59;;;;;;;18.15;13.40;;;;;;;21.43;99.90;100450.77;1659378;85;21003;-71
2022/06/28 03:45:26;;;;;;;23.12;13.18;;;;;;;21.64;98.63;100448.23;1662115;85;21010;-71
2022/06/28 03:47:55;;;;;;;22.10;13.60;;;;;;;21.83;97.64;100447.63;1646495;87;21079;-70
2022/06/28 03:50:32;;;;;;;15.23;12.13;;;;;;;22.06;96.28;100445.80;1646096;87;21551;-71
2022/06/28 03:53:03;;;;;;;14.13;12.73;;;;;;;22.32;95.57;100455.81;1648484;86;21043;-70
2022/06/28 03:55:30;;;;;;;13.55;12.18;;;;;;;22.59;94.17;100447.81;1654075;80;21002;-69
2022/06/28 03:57:57;;;;;;;16.65;12.93;;;;;;;22.82;92.69;100445.44;1720107;83;20986;-69
2022/06/28 04:00:24;;;;;;;13.20;11.97;;;;;;;23.07;92.34;100438.52;1705064;84;21253;-70
2022/06/28 04:02:51;;;;;;;14.95;13.05;;;;;;;23.30;90.52;100444.62;1705237;84;21582;-70
2022/06/28 04:05:19;;;;;;;14.10;12.47;;;;;;;23.57;89.83;100446.27;1702635;84;21555;-70
2022/06/28 04:07:46;;;;;;;14.30;12.80;;;;;;;23.85;89.15;100442.05;1705270;84;21002;-69
2022/06/28 04:10:13;;;;;;;14.18;11.65;;;;;;;24.16;88.02;100445.23;1705011;84;21010;-70
2022/06/28 04:12:43;;;;;;;11.45;10.05;;;;;;;24.41;86.56;100439.34;1684108;82;20975;-69
2022/06/28 04:15:19;;;;;;;10.30;9.18;;;;;;;24.69;84.54;100440.91;1685210;84;21518;-71
2022/06/28 04:17:48;;;;;;;13.30;9.63;;;;;;;24.96;82.93;100438.86;1684660;85;21485;-70
2022/06/28 04:20:33;;;;;;;12.03;9.20;;;;;;;25.25;81.57;100434.80;1682231;85;20982;-70
2022/06/28 04:23:02;;;;;;;11.17;9.47;;;;;;;25.58;79.69;100433.10;1685314;84;21050;-72
2022/06/28 04:25:30;;;;;;;10.70;8.28;;;;;;;25.90;78.43;100432.73;1669896;80;21271;31
2022/06/28 04:27:58;;;;;;;13.03;7.78;;;;;;;26.23;75.01;100435.86;1725737;82;20971;-71
2022/06/28 04:30:25;;;;;;;9.13;7.87;;;;;;;26.45;72.52;100429.17;1728730;82;21551;-71
2022/06/28 04:32:57;;;;;;;9.40;7.50;;;;;;;26.77;71.75;100434.09;1696417;83;21436;-70
2022/06/28 04:35:25;;;;;;;10.60;7.28;;;;;;;27.02;70.40;100434.31;1721767;83;21072;-70
2022/06/28 04:37:51;;;;;;;7.72;6.95;;;;;;;27.27;68.87;100421.37;1721359;83;21104;-70
2022/06/28 04:40:43;;;;;;;10.32;6.45;;;;;;;27.58;68.00;100430.34;1719313;83;21004;-71
2022/06/28 04:43:12;;;;;;;11.00;7.12;;;;;;;27.90;66.31;100431.57;1682392;85;20986;-71
2022/06/28 04:45:39;;;;;;;12.98;6.78;;;;;;;28.24;64.46;100425.61;1648859;86;20990;-73
2022/06/28 04:48:08;;;;;;;10.20;7.08;;;;;;;28.40;63.55;100430.75;1679148;85;21020;-71
2022/06/28 04:50:35;;;;;;;10.15;6.28;;;;;;;28.60;62.33;100428.12;1679076;85;21101;-71
2022/06/28 04:53:02;;;;;;;7.67;6.42;;;;;;;28.88;61.79;100430.52;1679282;85;20954;-70
2022/06/28 04:55:34;;;;;;;13.22;5.90;;;;;;;29.16;61.23;100432.41;1679014;85;21502;-72
2022/06/28 04:58:04;;;;;;;12.93;6.40;;;;;;;29.24;60.63;100429.70;1659883;85;21033;-71
2022/06/28 05:00:30;;;;;;;9.95;6.10;;;;;;;29.47;60.50;100427.13;1680522;85;21019;-71
2022/06/28 05:02:59;;;;;;;11.43;6.12;;;;;;;29.78;59.12;100423.67;1680097;85;21099;-71
2022/06/28 05:05:45;;;;;;;16.70;6.58;;;;;;;30.06;58.03;100428.66;1680835;85;20982;-72
2022/06/28 05:08:13;;;;;;;9.20;5.85;;;;;;;30.26;57.61;100428.59;1682774;85;21695;-71
2022/06/28 05:13:22;;;;;;;12.47;5.20;;;;;;;30.60;55.00;100428.74;1695852;84;20990;-71
2022/06/28 05:15:49;;;;;;;13.83;6.50;;;;;;;30.78;53.89;100427.58;1705978;84;21247;-73
2022/06/28 05:18:17;;;;;;;16.12;5.90;;;;;;;31.03;53.24;100427.75;1706016;83;20974;-70
2022/06/28 05:20:44;;;;;;;6.65;5.40;;;;;;;31.23;51.01;100417.20;1696199;84;21512;-71
2022/06/28 05:23:11;;;;;;;8.30;5.72;;;;;;;31.45;50.24;100418.22;1696309;83;21030;-71
2022/06/28 05:25:48;;;;;;;6.53;5.83;;;;;;;31.68;48.94;100414.55;1680685;80;20990;-69
2022/06/28 05:28:15;;;;;;;13.08;5.87;;;;;;;31.97;48.78;100414.56;1750105;81;21630;-70
2022/06/28 05:30:43;;;;;;;9.20;5.03;;;;;;;32.13;47.74;100407.23;1749763;80;21322;-71
2022/06/28 05:33:11;;;;;;;13.88;5.08;;;;;;;32.18;47.20;100406.13;1749910;82;21010;-72
2022/06/28 05:35:39;;;;;;;6.67;4.87;;;;;;;32.25;47.78;100396.16;1750338;82;21001;-73
2022/06/28 05:38:06;;;;;;;7.97;4.60;;;;;;;32.40;45.96;100398.84;1749883;82;21470;-72
2022/06/28 05:40:32;;;;;;;5.62;4.33;;;;;;;32.55;45.95;100396.92;1714276;82;21511;-71
2022/06/28 05:42:59;;;;;;;5.83;4.62;;;;;;;32.74;45.35;100390.00;1715935;80;21099;-71
2022/06/28 05:45:26;;;;;;;5.50;3.80;;;;;;;32.88;45.13;100391.50;1731673;82;20974;-70
2022/06/28 05:47:53;;;;;;;5.42;3.80;;;;;;;33.05;43.52;100397.00;1742015;82;21065;-71
2022/06/28 05:50:20;;;;;;;6.97;4.08;;;;;;;33.03;42.02;100397.69;1742163;82;21620;-72
2022/06/28 05:52:47;;;;;;;7.70;3.98;;;;;;;33.04;40.77;100392.57;1737414;82;21062;-73
2022/06/28 05:55:18;;;;;;;5.87;3.87;;;;;;;33.21;40.34;100391.25;1725019;83;21533;-74
2022/06/28 05:57:45;;;;;;;7.35;3.83;;;;;;;33.44;39.39;100392.88;1732761;78;20956;-71
2022/06/28 06:00:13;;;;;;;8.33;3.65;;;;;;;33.53;38.97;100393.58;1750262;82;20885;-71
2022/06/28 06:02:42;;;;;;;;;;;;;;;33.59;38.50;100393.65;1723830;81;20997;-71
2022/06/28 06:06:45;;;;;;;7.33;4.10;;;;;;;33.83;38.32;100391.45;1796732;79;22667;-71
2022/06/28 06:09:12;;;;;;;7.40;3.75;;;;;;;33.86;37.50;100393.77;1756665;80;20981;-72
2022/06/28 06:11:40;;;;;;;8.73;3.80;;;;;;;33.89;37.39;100394.75;1732796;78;21214;-72
2022/06/28 06:14:07;;;;;;;6.72;4.00;;;;;;;33.98;37.00;100385.83;1667247;86;21144;-70
2022/06/28 06:16:35;;;;;;;5.78;3.67;;;;;;;34.23;37.33;100394.36;1667417;86;22143;-71
2022/06/28 06:19:03;;;;;;;5.50;3.70;;;;;;;34.41;36.11;100397.36;1667356;86;21055;-70
2022/06/28 06:21:30;;;;;;;5.95;3.45;;;;;;;34.52;36.22;100397.82;1667327;86;21072;-69
2022/06/28 06:23:57;;;;;;;3.62;3.20;;;;;;;34.66;36.16;100388.61;1667192;86;21087;-70
2022/06/28 06:26:34;;;;;;;6.42;3.58;;;;;;;34.81;34.88;100386.53;1665585;81;21084;-71
2022/06/28 06:29:01;;;;;;;8.73;3.50;;;;;;;34.84;34.33;100391.57;1647785;86;21033;-71
2022/06/28 06:31:28;;;;;;;4.15;3.17;;;;;;;34.92;34.27;100389.67;1662216;86;21123;-71
2022/06/28 06:34:00;;;;;;;7.65;3.30;;;;;;;35.07;34.03;100384.84;1619330;85;21104;-72
2022/06/28 06:36:29;;;;;;;5.75;3.15;;;;;;;35.32;33.90;100377.34;1661743;85;21842;-72
2022/06/28 06:38:56;;;;;;;7.58;3.10;;;;;;;35.48;32.92;100374.19;1647928;86;21073;-72
2022/06/28 06:41:23;;;;;;;3.75;2.90;;;;;;;35.55;31.80;100372.80;1668615;79;21558;-72
2022/06/28 06:43:53;;;;;;;7.05;3.15;;;;;;;35.63;31.64;100378.89;1715674;82;21112;-71
2022/06/28 06:46:20;;;;;;;5.92;2.72;;;;;;;35.64;31.23;100377.85;1715865;83;21053;-71
2022/06/28 06:48:47;;;;;;;6.92;3.20;;;;;;;35.58;31.10;100384.15;1716123;83;21124;-71
2022/06/28 06:51:14;;;;;;;5.30;2.85;;;;;;;35.65;31.31;100379.52;1715719;83;21123;-72
2022/06/28 06:53:41;;;;;;;4.45;3.05;;;;;;;35.78;31.62;100380.55;1712619;83;21075;-71
2022/06/28 06:56:28;;;;;;;4.58;3.02;;;;;;;36.00;31.95;100369.58;1707766;82;21095;-75
2022/06/28 06:58:55;;;;;;;6.42;3.37;;;;;;;36.38;30.89;100370.16;1723524;82;21108;-72
2022/06/28 07:01:22;;;;;;;3.22;2.90;;;;;;;36.42;30.03;100385.11;1723336;83;21043;-71
2022/06/28 07:03:48;;;;;;;4.53;2.90;;;;;;;36.29;30.33;100376.96;1723476;83;21046;-71
2022/06/28 07:06:15;;;;;;;5.78;3.00;;;;;;;36.35;30.18;100376.06;1723682;81;21374;-72
2022/06/28 07:08:42;;;;;;;5.05;3.05;;;;;;;36.61;30.54;100366.03;1723411;83;21045;-71
2022/06/28 07:11:31;;;;;;;5.25;3.17;;;;;;;36.78;29.22;100378.12;1723340;78;20988;-72
2022/06/28 07:13:59;;;;;;;5.17;3.08;;;;;;;36.71;29.34;100372.68;1693510;84;21532;-72
2022/06/28 07:16:25;;;;;;;5.72;3.02;;;;;;;36.58;30.19;100380.14;1693194;84;22125;-73
2022/06/28 07:18:52;;;;;;;4.45;3.00;;;;;;;36.77;29.82;100376.45;1692954;84;21033;-73
2022/06/28 07:21:19;;;;;;;6.05;4.37;;;;;;;37.09;29.02;100370.94;1692957;84;21036;-72
2022/06/28 07:23:46;;;;;;;4.08;3.45;;;;;;;37.31;28.97;100368.59;1693085;84;21172;-72
2022/06/28 07:26:35;;;;;;;3.35;3.05;;;;;;;37.31;29.12;100370.80;1692863;84;21768;-75
2022/06/28 07:29:04;;;;;;;4.60;3.25;;;;;;;37.27;28.88;100372.34;1701100;83;21088;-72
2022/06/28 07:31:32;;;;;;;4.53;3.00;;;;;;;37.13;29.59;100369.40;1692216;84;21055;-72
2022/06/28 07:33:59;;;;;;;4.87;3.15;;;;;;;37.11;29.02;100372.39;1691903;84;21092;-74
2022/06/28 07:36:26;;;;;;;6.42;3.50;;;;;;;36.92;29.23;100376.94;1692049;84;21107;-72
2022/06/28 07:38:54;;;;;;;4.00;3.10;;;;;;;36.82;29.06;100375.78;1692094;84;21200;-71
2022/06/28 07:41:24;;;;;;;6.15;3.40;;;;;;;36.88;29.42;100383.10;1691953;80;21592;31
2022/06/28 07:43:54;;;;;;;7.75;3.80;;;;;;;36.97;29.38;100376.27;1675023;85;21637;-72
2022/06/28 07:46:26;;;;;;;5.17;3.80;;;;;;;36.95;29.08;100379.80;1637670;87;21673;-73
2022/06/28 07:48:51;;;;;;;7.20;3.83;;;;;;;36.87;29.40;100383.64;1626852;88;21080;-71
2022/06/28 07:54:04;;;;;;;3.87;3.58;;;;;;;36.74;28.87;100382.37;1628334;87;21030;-72
2022/06/28 07:56:35;;;;;;;7.60;3.75;;;;;;;36.50;29.71;100384.83;1661235;82;21091;-71
2022/06/28 07:59:02;;;;;;;5.37;3.55;;;;;;;36.45;29.53;100386.03;1638088;86;21117;-71
2022/06/28 08:01:30;;;;;;;4.97;3.00;;;;;;;36.32;29.70;100381.99;1638285;87;21493;-72
2022/06/28 08:03:58;;;;;;;5.72;3.50;;;;;;;36.32;28.99;100383.36;1638456;87;21258;-71
2022/06/28 08:06:24;;;;;;;5.67;3.50;;;;;;;36.33;29.51;100386.44;1638535;87;21525;-73
2022/06/28 08:21:27;;;;;;;4.45;3.30;;;;;;;35.83;30.07;100399.37;1837687;77;22127;-72
2022/06/28 08:23:54;;;;;;;5.72;3.55;;;;;;;35.55;30.54;100397.45;1793466;80;21096;-71
2022/06/28 08:26:21;;;;;;;4.55;3.77;;;;;;;35.27;31.04;100393.91;1793151;79;21117;-71
2022/06/28 08:28:48;;;;;;;7.10;3.52;;;;;;;35.21;31.43;100396.66;1793267;79;20996;-72
2022/06/28 08:31:15;;;;;;;8.93;3.95;;;;;;;35.44;30.06;100386.61;1793264;79;20977;-72
2022/06/28 08:33:41;;;;;;;5.45;3.55;;;;;;;35.51;30.39;100381.96;1793374;79;21084;-71
2022/06/28 08:36:08;;;;;;;6.87;4.00;;;;;;;35.51;30.10;100387.44;1793303;80;21056;-73
2022/06/28 08:38:36;;;;;;;6.78;3.90;;;;;;;35.34;31.23;100380.22;1793307;79;21038;-71
2022/06/28 08:41:03;;;;;;;5.65;3.70;;;;;;;35.29;31.54;100386.33;1793445;79;20996;-72
2022/06/28 08:43:31;;;;;;;7.55;3.67;;;;;;;35.27;30.68;100386.20;1793449;80;21627;-72
2022/06/28 08:45:58;;;;;;;5.67;3.42;;;;;;;35.33;29.87;100387.27;1793294;80;21025;-71
2022/06/28 08:48:34;;;;;;;4.03;3.20;;;;;;;35.64;29.49;100379.22;1793329;80;21529;-70
2022/06/28 08:51:01;;;;;;;3.98;3.42;;;;;;;36.08;28.99;100372.62;1775775;80;21306;-71
2022/06/28 08:53:28;;;;;;;4.37;3.58;;;;;;;36.39;28.95;100370.98;1793015;80;21025;-72
2022/06/28 08:55:55;;;;;;;5.90;3.87;;;;;;;36.64;29.59;100373.80;1793339;80;21087;-73
2022/06/28 08:58:22;;;;;;;4.12;3.72;;;;;;;36.67;29.71;100367.86;1775631;80;21072;-74
2022/06/28 09:00:49;;;;;;;6.67;4.30;;;;;;;36.62;29.22;100361.67;1774232;80;21631;-74
2022/06/28 09:03:18;;;;;;;5.70;3.90;;;;;;;36.50;29.47;100368.38;1793121;80;21137;-73
2022/06/28 09:05:45;;;;;;;4.50;4.10;;;;;;;36.43;30.00;100366.21;1793520;79;21032;-71
2022/06/28 09:08:12;;;;;;;5.05;3.90;;;;;;;36.32;29.14;100364.17;1793383;80;21100;-72
2022/06/28 09:10:39;;;;;;;5.75;4.22;;;;;;;36.18;28.80;100362.58;1793345;80;21029;-73
2022/06/28 09:13:14;;;;;;;7.60;3.90;;;;;;;36.20;29.40;100359.09;1774442;80;21099;-72
2022/06/28 09:16:00;;;;;;;8.58;3.92;;;;;;;36.25;29.23;100362.00;1793503;79;21900;-73
2022/06/28 09:18:42;;;;;;;6.03;4.45;;;;;;;36.18;29.13;100359.84;1793101;79;21052;-72
2022/06/28 09:21:12;;;;;;;9.03;4.50;;;;;;;36.24;29.72;100357.59;1785849;80;21008;-73
2022/06/28 09:23:44;;;;;;;4.60;4.20;;;;;;;36.32;30.13;100360.06;1785175;80;21516;-73
2022/06/28 09:26:18;;;;;;;6.33;4.28;;;;;;;36.07;30.38;100362.70;1785153;80;21064;-72
2022/06/28 09:28:53;;;;;;;4.92;4.53;;;;;;;35.81;30.90;100363.67;1785340;80;21198;-72
2022/06/28 09:31:28;;;;;;;6.30;4.15;;;;;;;35.86;31.30;100352.89;1785069;80;21515;-75
2022/06/28 09:34:07;;;;;;;5.25;4.62;;;;;;;36.20;30.74;100355.81;1784693;80;21063;-72
2022/06/28 09:36:43;;;;;;;8.78;4.78;;;;;;;36.73;30.56;100350.52;1784818;80;21086;-72
2022/06/28 09:39:16;;;;;;;6.17;4.65;;;;;;;37.10;29.69;100354.76;1784477;79;21563;-70
2022/06/28 09:41:49;;;;;;;6.30;4.62;;;;;;;37.00;29.49;100359.37;1785128;80;21167;-73
2022/06/28 09:44:17;;;;;;;7.28;4.75;;;;;;;36.61;30.35;100350.41;1785222;80;21052;-72
2022/06/28 09:46:47;;;;;;;5.05;4.55;;;;;;;36.54;30.35;100343.56;1785288;80;21606;-72
2022/06/28 09:49:14;;;;;;;7.10;4.95;;;;;;;36.70;30.24;100345.49;1758684;80;21102;-72
2022/06/28 09:51:41;;;;;;;5.55;5.05;;;;;;;36.88;29.57;100342.80;1785305;80;21055;-72
2022/06/28 09:54:09;;;;;;;5.70;4.67;;;;;;;36.95;29.53;100337.25;1785442;80;21173;-71
2022/06/28 09:56:40;;;;;;;7.72;4.85;;;;;;;36.95;30.16;100332.59;1785166;80;21015;-73
2022/06/28 09:59:09;;;;;;;7.83;4.50;;;;;;;37.04;29.06;100335.03;1785669;80;21617;-74
2022/06/28 10:01:37;;;;;;;5.90;4.55;;;;;;;37.19;29.11;100327.32;1785495;80;21024;-73
2022/06/28 10:04:04;;;;;;;7.08;4.45;;;;;;;37.52;29.06;100326.10;1785353;80;21047;-72
2022/06/28 10:06:31;;;;;;;6.03;3.90;;;;;;;37.86;27.92;100326.56;1785436;80;22061;-72
2022/06/28 10:08:59;;;;;;;4.55;3.70;;;;;;;38.13;27.27;100326.53;1785431;80;22134;-72
2022/06/28 10:15:01;;;;;;;4.72;4.10;;;;;;;38.28;26.31;100319.20;1759215;80;21083;-72
2022/06/28 10:16:49;;;;;;;5.30;3.83;;;;;;;38.69;26.50;100308.44;1763248;80;21087;-73
2022/06/28 10:19:19;;;;;;;4.37;3.33;;;;;;;38.81;26.48;100310.14;1784949;79;21685;-73
2022/06/28 10:22:07;;;;;;;6.17;3.62;;;;;;;38.67;23.59;100296.83;1784824;80;21087;-71
2022/06/28 10:24:54;;;;;;;7.00;3.65;;;;;;;38.42;24.70;100289.58;1784568;80;21504;-70
2022/06/28 10:27:21;;;;;;;5.60;4.12;;;;;;;38.05;26.59;100300.72;1785024;80;21064;-71
2022/06/28 10:30:08;;;;;;;5.50;4.00;;;;;;;37.81;27.06;100292.91;1785210;80;21523;-73
2022/06/28 10:32:52;;;;;;;6.35;3.80;;;;;;;37.86;27.61;100295.78;1784999;80;21286;-72
2022/06/28 10:35:37;;;;;;;5.85;4.30;;;;;;;38.11;26.49;100296.22;1785155;80;21051;-72
2022/06/28 10:38:14;;;;;;;5.17;4.08;;;;;;;38.29;26.98;100288.44;1785187;80;21052;-74
2022/06/28 10:40:50;;;;;;;6.03;3.95;;;;;;;37.96;26.63;100297.97;1785165;80;21063;-73
2022/06/28 10:43:34;;;;;;;8.73;4.37;;;;;;;37.50;27.41;100300.26;1785107;80;21107;-73
2022/06/28 10:46:06;;;;;;;4.97;3.80;;;;;;;37.42;27.49;100293.69;1785096;80;21078;-73
2022/06/28 10:48:51;;;;;;;5.42;3.90;;;;;;;37.77;26.64;100293.06;1784892;80;21024;-73
2022/06/28 10:51:20;;;;;;;4.92;4.10;;;;;;;38.15;26.32;100284.52;1784710;80;21039;-72
2022/06/28 10:54:09;;;;;;;7.58;4.28;;;;;;;38.56;25.72;100285.59;1785080;80;21048;-72
2022/06/28 10:56:42;;;;;;;7.67;3.47;;;;;;;38.85;25.72;100288.45;1785373;80;21063;-72
2022/06/28 10:59:17;;;;;;;4.28;3.52;;;;;;;38.66;25.29;100286.91;1784907;80;21020;-72
2022/06/28 11:01:53;;;;;;;7.80;3.87;;;;;;;38.27;25.96;100290.04;1785395;80;21519;-72
2022/06/28 11:04:27;;;;;;;5.33;3.87;;;;;;;38.12;26.38;100286.38;1785053;80;20988;-72
2022/06/28 11:07:21;;;;;;;14.60;5.22;;;;;;;38.04;26.91;100282.56;1785399;80;21043;-73
2022/06/28 11:09:53;;;;;;;4.95;3.70;;;;;;;37.71;26.95;100283.84;1784984;80;21544;-73
2022/06/28 11:12:23;;;;;;;4.85;3.80;;;;;;;37.57;27.25;100280.95;1784828;80;21225;-72
2022/06/28 11:15:02;;;;;;;4.30;3.67;;;;;;;37.50;27.05;100280.16;1782627;80;21055;-72
2022/06/28 11:17:32;;;;;;;4.90;3.85;;;;;;;37.26;27.51;100281.41;1785253;80;21099;-72
2022/06/28 11:20:04;;;;;;;5.35;4.85;;;;;;;37.20;27.77;100276.81;1785141;79;21087;-72
2022/06/28 11:22:35;;;;;;;6.12;5.53;;;;;;;37.22;27.30;100273.31;1782795;80;21037;-72
2022/06/28 11:25:04;;;;;;;4.47;3.45;;;;;;;37.16;27.66;100278.37;1782928;80;21137;-73
2022/06/28 11:27:32;;;;;;;5.83;4.20;;;;;;;37.19;27.25;100261.42;1783340;80;21016;-72
2022/06/28 11:30:05;;;;;;;5.30;3.70;;;;;;;37.01;28.13;100274.57;1782991;80;21083;-73
2022/06/28 11:32:41;;;;;;;3.87;3.47;;;;;;;36.95;27.12;100272.22;1783270;80;21087;-73
2022/06/28 11:35:11;;;;;;;7.80;3.60;;;;;;;36.88;27.42;100270.59;1783142;80;21033;-72
2022/06/28 11:37:53;;;;;;;3.55;3.22;;;;;;;36.87;27.03;100267.01;1743473;81;21812;-73
2022/06/28 11:40:29;;;;;;;5.20;3.72;;;;;;;36.99;26.25;100263.52;1718197;83;21549;-72
2022/06/28 11:43:15;;;;;;;4.70;3.52;;;;;;;37.31;27.25;100258.75;1718276;82;21563;-71
2022/06/28 11:45:46;;;;;;;5.30;3.60;;;;;;;37.48;26.28;100270.80;1717663;82;21094;-72
2022/06/28 11:48:19;;;;;;;4.28;3.75;;;;;;;37.48;26.46;100258.95;1718340;83;21047;-73
2022/06/28 11:50:53;;;;;;;7.67;3.92;;;;;;;37.49;25.94;100262.02;1718164;82;21186;-72
2022/06/28 11:53:20;;;;;;;5.47;3.60;;;;;;;37.59;26.09;100262.33;1718194;83;21057;-72
2022/06/28 11:55:55;;;;;;;5.25;3.72;;;;;;;37.56;26.31;100250.44;1718160;83;21734;-73
2022/06/28 11:58:33;;;;;;;5.67;3.77;;;;;;;37.53;26.27;100261.87;1718186;83;21552;-71
2022/06/28 12:01:13;;;;;;;9.25;4.15;;;;;;;37.45;26.76;100252.55;1718134;83;21072;-72